首页
METAR-TAF:

METAR-TAF

机场 :

Elk Valley

Sparwood, 不列颠哥伦比亚, 加拿大

纬度: 49-45N, 经度: 114-53W, 海拔: 1138米

当前天气观测

该预报发布于9小时和20分钟前的01:00 UTC
风速11节,风向东南,有时为21节阵风
温度 -11°C
湿度 56%
气压 1020 hPa
能見度: 19.3公里
阴天层高于4000英尺

METAR: CWSW 020100Z 13011G21KT 12SM OVC040 M11/M18 A3012 RMK SC8 LAST STFD OBS/NXT 021300Z SLP280

时间: 04:20 (10:20 UTC)


TAF: 丢失

超过4000个机场的气象观测和天气预报(METAR&TAF报告)。

可查询的气象台以黄色和红色小点在地图上表示。

将鼠标移到小点上方,可查看气象台名称。

然后点击查看天气观测和预报。

如需切换地图:点击带黑十字的绿色按钮放大地图;点击带横线的绿色按钮缩小地图;或者点击绿色箭头查看邻近地区的地图。


METAR-TAF: